Portada
METAR-TAF:

METAR-TAF

Aeroports :

Tabatinga, Amazones, Brasil

latitud: 03-40S, longitud: 069-40W, altitud: 85 m

Observació

L'informe es va fer fa 44 minuts, a les 01:00 UTC
Vent 3 kt del Nord
Temperatura 25°C
Humitat 83%
Pressió 1011 hPa
Visibilitat 10 km o més
Escasses núvols a una alçada de 1000 ft
Cel ennuvolat a una alçada de 7000 ft

METAR: SBTT 290100Z 36003KT 9999 FEW010 BKN070 25/22 Q1011

Hora: 21:44 (01:44 UTC)

Pronòstic

L'informe es va fer fa 4 hores i 44 minuts, a les 21:00 UTC
Pronòstic vàlid del 29 a les 00 UTC al 29 a les 24 UTC
Vent 5 kt del Est/Sud-Est
Visibilitat 10 km o més
Núvols disperses a una alçada de 600 ft
Probabilitat 30% :
Temporalment
l' 29 a les 19 UTC al 29 a les 23 UTC
Visibilitat: 4000 m
Cel ennuvolat a una alçada de 1000 ft
Escasses núvols a una alçada de 2300 ft, Cumulonimbus.
tempesta, pluja

TAF: SBTT 282100Z 2900/2924 12005KT 9999 SCT006 TN23/2911Z TX29/2919Z PROB30 TEMPO 2919/2923 4000 TSRA BKN010 FEW023CB RMK PGY

Observacions i pronòstics meteorològics de més de 4000 aeroports (METAR i TAF).

Les estacions disponibles són els punts grocs i vermells al mapa.

Posi el ratolí al punt desitjat per veure el nom de l'estació.

Feu clic per veure les observacions i els pronòstics meteorològics.

Per canviar el mapa: feu clic els botons verds amb una creu de color negre per apropar; al botó verd amb un guió per allunyar la imatge; o en les fletxes verdes per a mapes adjacents.


METAR-TAF: